sensor_id;sensor_type;location;lat;lon;timestamp;P1;durP1;ratioP1;P2;durP2;ratioP2
77298;SDS011;66361;52.034;20.656;2023-12-29T00:01:55;10.13;;;5.72;;
77298;SDS011;66361;52.034;20.656;2023-12-29T00:05:41;16.80;;;7.38;;
77298;SDS011;66361;52.034;20.656;2023-12-29T00:09:25;16.70;;;7.43;;
77298;SDS011;66361;52.034;20.656;2023-12-29T00:13:11;11.40;;;7.47;;
77298;SDS011;66361;52.034;20.656;2023-12-29T00:16:56;9.40;;;6.57;;
77298;SDS011;66361;52.034;20.656;2023-12-29T00:20:40;8.63;;;5.85;;
77298;SDS011;66361;52.034;20.656;2023-12-29T00:24:25;15.38;;;8.40;;
77298;SDS011;66361;52.034;20.656;2023-12-29T00:28:09;13.48;;;8.02;;
77298;SDS011;66361;52.034;20.656;2023-12-29T00:31:57;13.05;;;8.52;;
77298;SDS011;66361;52.034;20.656;2023-12-29T00:35:41;14.40;;;6.93;;
77298;SDS011;66361;52.034;20.656;2023-12-29T00:39:26;12.98;;;7.38;;
77298;SDS011;66361;52.034;20.656;2023-12-29T00:43:13;14.43;;;8.05;;
77298;SDS011;66361;52.034;20.656;2023-12-29T00:47:01;17.70;;;8.65;;
77298;SDS011;66361;52.034;20.656;2023-12-29T00:50:45;15.82;;;7.53;;
77298;SDS011;66361;52.034;20.656;2023-12-29T00:54:30;12.90;;;7.35;;
77298;SDS011;66361;52.034;20.656;2023-12-29T00:58:14;12.88;;;7.70;;
77298;SDS011;66361;52.034;20.656;2023-12-29T01:01:58;12.32;;;7.80;;
77298;SDS011;66361;52.034;20.656;2023-12-29T01:05:44;16.38;;;8.40;;
77298;SDS011;66361;52.034;20.656;2023-12-29T01:09:27;11.70;;;7.97;;
77298;SDS011;66361;52.034;20.656;2023-12-29T01:13:12;9.88;;;7.25;;
77298;SDS011;66361;52.034;20.656;2023-12-29T01:16:56;8.90;;;5.63;;
77298;SDS011;66361;52.034;20.656;2023-12-29T01:20:41;16.65;;;9.18;;
77298;SDS011;66361;52.034;20.656;2023-12-29T01:24:27;14.65;;;8.77;;
77298;SDS011;66361;52.034;20.656;2023-12-29T01:28:23;13.60;;;8.65;;
77298;SDS011;66361;52.034;20.656;2023-12-29T01:32:08;12.77;;;7.28;;
77298;SDS011;66361;52.034;20.656;2023-12-29T01:35:56;13.98;;;8.15;;
77298;SDS011;66361;52.034;20.656;2023-12-29T01:39:51;13.27;;;8.10;;
77298;SDS011;66361;52.034;20.656;2023-12-29T01:43:35;16.50;;;9.00;;
77298;SDS011;66361;52.034;20.656;2023-12-29T01:47:19;12.45;;;7.43;;
77298;SDS011;66361;52.034;20.656;2023-12-29T01:51:07;12.38;;;7.93;;
77298;SDS011;66361;52.034;20.656;2023-12-29T01:54:51;17.00;;;9.30;;
77298;SDS011;66361;52.034;20.656;2023-12-29T01:58:37;16.73;;;8.52;;
77298;SDS011;66361;52.034;20.656;2023-12-29T02:02:21;11.98;;;8.43;;
77298;SDS011;66361;52.034;20.656;2023-12-29T02:06:07;13.13;;;8.35;;
77298;SDS011;66361;52.034;20.656;2023-12-29T02:09:53;15.00;;;9.05;;
77298;SDS011;66361;52.034;20.656;2023-12-29T02:13:40;13.93;;;8.23;;
77298;SDS011;66361;52.034;20.656;2023-12-29T02:17:27;16.55;;;8.93;;
77298;SDS011;66361;52.034;20.656;2023-12-29T02:21:24;13.70;;;8.05;;
77298;SDS011;66361;52.034;20.656;2023-12-29T02:25:10;12.50;;;8.82;;
77298;SDS011;66361;52.034;20.656;2023-12-29T02:28:55;13.95;;;9.15;;
77298;SDS011;66361;52.034;20.656;2023-12-29T02:32:44;15.75;;;8.90;;
77298;SDS011;66361;52.034;20.656;2023-12-29T02:36:30;19.20;;;8.35;;
77298;SDS011;66361;52.034;20.656;2023-12-29T02:44:01;14.35;;;8.88;;
77298;SDS011;66361;52.034;20.656;2023-12-29T02:47:45;16.23;;;9.60;;
77298;SDS011;66361;52.034;20.656;2023-12-29T02:51:30;18.90;;;10.20;;
77298;SDS011;66361;52.034;20.656;2023-12-29T02:55:14;15.85;;;9.73;;
77298;SDS011;66361;52.034;20.656;2023-12-29T02:58:59;17.70;;;9.68;;
77298;SDS011;66361;52.034;20.656;2023-12-29T03:02:43;15.68;;;9.43;;
77298;SDS011;66361;52.034;20.656;2023-12-29T03:06:28;17.35;;;9.48;;
77298;SDS011;66361;52.034;20.656;2023-12-29T03:10:12;19.60;;;10.98;;
77298;SDS011;66361;52.034;20.656;2023-12-29T03:13:56;17.60;;;10.65;;
77298;SDS011;66361;52.034;20.656;2023-12-29T03:17:41;19.02;;;10.10;;
77298;SDS011;66361;52.034;20.656;2023-12-29T03:21:25;16.80;;;10.93;;
77298;SDS011;66361;52.034;20.656;2023-12-29T03:25:09;16.35;;;9.98;;
77298;SDS011;66361;52.034;20.656;2023-12-29T03:28:53;9.65;;;5.97;;
77298;SDS011;66361;52.034;20.656;2023-12-29T03:32:38;18.38;;;11.25;;
77298;SDS011;66361;52.034;20.656;2023-12-29T03:36:24;19.48;;;10.43;;
77298;SDS011;66361;52.034;20.656;2023-12-29T03:40:08;20.08;;;10.75;;
77298;SDS011;66361;52.034;20.656;2023-12-29T03:43:53;15.52;;;9.05;;
77298;SDS011;66361;52.034;20.656;2023-12-29T03:47:38;19.75;;;10.10;;
77298;SDS011;66361;52.034;20.656;2023-12-29T03:51:24;17.70;;;10.90;;
77298;SDS011;66361;52.034;20.656;2023-12-29T03:55:08;21.08;;;10.73;;
77298;SDS011;66361;52.034;20.656;2023-12-29T03:58:53;19.98;;;11.63;;
77298;SDS011;66361;52.034;20.656;2023-12-29T04:02:37;18.73;;;10.52;;
77298;SDS011;66361;52.034;20.656;2023-12-29T04:06:21;18.83;;;8.43;;
77298;SDS011;66361;52.034;20.656;2023-12-29T04:10:06;22.02;;;11.82;;
77298;SDS011;66361;52.034;20.656;2023-12-29T04:13:51;18.58;;;10.85;;
77298;SDS011;66361;52.034;20.656;2023-12-29T04:17:36;10.52;;;6.22;;
77298;SDS011;66361;52.034;20.656;2023-12-29T04:21:20;17.88;;;10.90;;
77298;SDS011;66361;52.034;20.656;2023-12-29T04:25:06;22.50;;;11.90;;
77298;SDS011;66361;52.034;20.656;2023-12-29T04:28:51;12.13;;;8.13;;
77298;SDS011;66361;52.034;20.656;2023-12-29T04:32:35;13.00;;;8.13;;
77298;SDS011;66361;52.034;20.656;2023-12-29T04:36:19;16.05;;;8.60;;
77298;SDS011;66361;52.034;20.656;2023-12-29T04:40:03;12.45;;;6.10;;
77298;SDS011;66361;52.034;20.656;2023-12-29T04:43:50;13.98;;;7.68;;
77298;SDS011;66361;52.034;20.656;2023-12-29T04:47:34;13.70;;;8.27;;
77298;SDS011;66361;52.034;20.656;2023-12-29T04:51:18;12.77;;;8.02;;
77298;SDS011;66361;52.034;20.656;2023-12-29T04:55:02;12.00;;;7.85;;
77298;SDS011;66361;52.034;20.656;2023-12-29T04:58:50;18.52;;;9.75;;
77298;SDS011;66361;52.034;20.656;2023-12-29T05:02:34;17.45;;;9.07;;
77298;SDS011;66361;52.034;20.656;2023-12-29T05:06:19;16.33;;;9.63;;
77298;SDS011;66361;52.034;20.656;2023-12-29T05:10:04;19.17;;;9.70;;
77298;SDS011;66361;52.034;20.656;2023-12-29T05:13:50;17.25;;;9.35;;
77298;SDS011;66361;52.034;20.656;2023-12-29T05:17:34;14.63;;;8.73;;
77298;SDS011;66361;52.034;20.656;2023-12-29T05:21:18;11.80;;;7.78;;
77298;SDS011;66361;52.034;20.656;2023-12-29T05:25:03;15.85;;;8.90;;
77298;SDS011;66361;52.034;20.656;2023-12-29T05:28:47;12.68;;;8.80;;
77298;SDS011;66361;52.034;20.656;2023-12-29T05:32:32;18.85;;;9.30;;
77298;SDS011;66361;52.034;20.656;2023-12-29T05:36:17;15.82;;;9.50;;
77298;SDS011;66361;52.034;20.656;2023-12-29T05:40:00;14.88;;;8.52;;
77298;SDS011;66361;52.034;20.656;2023-12-29T05:43:44;15.05;;;7.90;;
77298;SDS011;66361;52.034;20.656;2023-12-29T05:47:29;11.18;;;6.78;;
77298;SDS011;66361;52.034;20.656;2023-12-29T05:51:18;9.93;;;7.35;;
77298;SDS011;66361;52.034;20.656;2023-12-29T05:55:03;9.65;;;6.32;;
77298;SDS011;66361;52.034;20.656;2023-12-29T05:58:48;11.27;;;7.47;;
77298;SDS011;66361;52.034;20.656;2023-12-29T06:02:32;7.00;;;4.65;;
77298;SDS011;66361;52.034;20.656;2023-12-29T06:06:17;13.95;;;6.90;;
77298;SDS011;66361;52.034;20.656;2023-12-29T06:10:02;13.00;;;8.00;;
77298;SDS011;66361;52.034;20.656;2023-12-29T06:17:30;10.45;;;6.30;;
77298;SDS011;66361;52.034;20.656;2023-12-29T06:21:14;13.27;;;6.40;;
77298;SDS011;66361;52.034;20.656;2023-12-29T06:25:00;11.15;;;6.90;;
77298;SDS011;66361;52.034;20.656;2023-12-29T06:28:44;12.07;;;6.55;;
77298;SDS011;66361;52.034;20.656;2023-12-29T06:32:29;13.23;;;8.20;;
77298;SDS011;66361;52.034;20.656;2023-12-29T06:36:14;11.32;;;7.45;;
77298;SDS011;66361;52.034;20.656;2023-12-29T06:39:58;7.30;;;4.68;;
77298;SDS011;66361;52.034;20.656;2023-12-29T06:43:46;11.93;;;7.40;;
77298;SDS011;66361;52.034;20.656;2023-12-29T06:47:30;11.45;;;6.82;;
77298;SDS011;66361;52.034;20.656;2023-12-29T06:51:17;15.80;;;8.32;;
77298;SDS011;66361;52.034;20.656;2023-12-29T06:55:02;11.98;;;8.10;;
77298;SDS011;66361;52.034;20.656;2023-12-29T06:58:47;12.48;;;7.72;;
77298;SDS011;66361;52.034;20.656;2023-12-29T07:02:31;10.68;;;6.60;;
77298;SDS011;66361;52.034;20.656;2023-12-29T07:06:15;10.52;;;6.32;;
77298;SDS011;66361;52.034;20.656;2023-12-29T07:09:59;8.98;;;5.60;;
77298;SDS011;66361;52.034;20.656;2023-12-29T07:13:44;10.68;;;6.93;;
77298;SDS011;66361;52.034;20.656;2023-12-29T07:17:29;7.90;;;6.03;;
77298;SDS011;66361;52.034;20.656;2023-12-29T07:21:13;11.40;;;6.97;;
77298;SDS011;66361;52.034;20.656;2023-12-29T07:25:01;11.73;;;7.03;;
77298;SDS011;66361;52.034;20.656;2023-12-29T07:28:46;13.65;;;6.75;;
77298;SDS011;66361;52.034;20.656;2023-12-29T07:32:30;12.75;;;6.93;;
77298;SDS011;66361;52.034;20.656;2023-12-29T07:36:17;11.30;;;6.93;;
77298;SDS011;66361;52.034;20.656;2023-12-29T07:40:03;13.50;;;7.22;;
77298;SDS011;66361;52.034;20.656;2023-12-29T07:43:51;11.90;;;7.18;;
77298;SDS011;66361;52.034;20.656;2023-12-29T07:47:35;12.15;;;7.05;;
77298;SDS011;66361;52.034;20.656;2023-12-29T07:51:20;13.07;;;7.65;;
77298;SDS011;66361;52.034;20.656;2023-12-29T07:55:05;10.18;;;7.35;;
77298;SDS011;66361;52.034;20.656;2023-12-29T07:58:49;9.18;;;5.85;;
77298;SDS011;66361;52.034;20.656;2023-12-29T08:02:34;9.23;;;5.72;;
77298;SDS011;66361;52.034;20.656;2023-12-29T08:06:18;11.88;;;6.60;;
77298;SDS011;66361;52.034;20.656;2023-12-29T08:10:02;9.57;;;6.90;;
77298;SDS011;66361;52.034;20.656;2023-12-29T08:13:47;11.85;;;7.25;;
77298;SDS011;66361;52.034;20.656;2023-12-29T08:17:31;15.38;;;8.45;;
77298;SDS011;66361;52.034;20.656;2023-12-29T08:21:17;13.30;;;7.93;;
77298;SDS011;66361;52.034;20.656;2023-12-29T08:25:02;15.25;;;8.02;;
77298;SDS011;66361;52.034;20.656;2023-12-29T08:28:47;12.32;;;7.10;;
77298;SDS011;66361;52.034;20.656;2023-12-29T08:32:31;10.57;;;5.07;;
77298;SDS011;66361;52.034;20.656;2023-12-29T08:36:21;9.43;;;6.53;;
77298;SDS011;66361;52.034;20.656;2023-12-29T08:40:05;9.65;;;6.65;;
77298;SDS011;66361;52.034;20.656;2023-12-29T08:43:51;11.27;;;7.03;;
77298;SDS011;66361;52.034;20.656;2023-12-29T08:47:35;8.52;;;4.72;;
77298;SDS011;66361;52.034;20.656;2023-12-29T08:51:20;16.33;;;5.75;;
77298;SDS011;66361;52.034;20.656;2023-12-29T08:55:04;10.20;;;6.18;;
77298;SDS011;66361;52.034;20.656;2023-12-29T08:58:49;8.05;;;5.65;;
77298;SDS011;66361;52.034;20.656;2023-12-29T09:02:32;6.38;;;3.78;;
77298;SDS011;66361;52.034;20.656;2023-12-29T09:06:16;8.13;;;5.63;;
77298;SDS011;66361;52.034;20.656;2023-12-29T09:10:02;9.60;;;5.95;;
77298;SDS011;66361;52.034;20.656;2023-12-29T09:13:50;7.10;;;5.10;;
77298;SDS011;66361;52.034;20.656;2023-12-29T09:17:34;8.40;;;5.50;;
77298;SDS011;66361;52.034;20.656;2023-12-29T09:21:18;7.82;;;4.95;;
77298;SDS011;66361;52.034;20.656;2023-12-29T09:25:04;12.20;;;7.30;;
77298;SDS011;66361;52.034;20.656;2023-12-29T09:28:48;10.77;;;6.03;;
77298;SDS011;66361;52.034;20.656;2023-12-29T09:32:32;9.50;;;6.45;;
77298;SDS011;66361;52.034;20.656;2023-12-29T09:36:16;8.55;;;6.25;;
77298;SDS011;66361;52.034;20.656;2023-12-29T09:40:00;12.80;;;7.28;;
77298;SDS011;66361;52.034;20.656;2023-12-29T09:43:49;10.57;;;7.00;;
77298;SDS011;66361;52.034;20.656;2023-12-29T09:47:34;6.00;;;4.90;;
77298;SDS011;66361;52.034;20.656;2023-12-29T09:51:22;13.32;;;6.00;;
77298;SDS011;66361;52.034;20.656;2023-12-29T09:55:07;11.60;;;7.18;;
77298;SDS011;66361;52.034;20.656;2023-12-29T09:58:55;16.17;;;8.73;;
77298;SDS011;66361;52.034;20.656;2023-12-29T10:02:41;14.48;;;7.93;;
77298;SDS011;66361;52.034;20.656;2023-12-29T10:06:25;11.20;;;6.88;;
77298;SDS011;66361;52.034;20.656;2023-12-29T10:10:15;8.63;;;6.18;;
77298;SDS011;66361;52.034;20.656;2023-12-29T10:14:03;15.75;;;7.53;;
77298;SDS011;66361;52.034;20.656;2023-12-29T10:18:00;20.48;;;10.27;;
77298;SDS011;66361;52.034;20.656;2023-12-29T10:21:52;20.95;;;10.32;;
77298;SDS011;66361;52.034;20.656;2023-12-29T10:25:45;20.45;;;9.98;;
77298;SDS011;66361;52.034;20.656;2023-12-29T10:29:32;11.18;;;6.35;;
77298;SDS011;66361;52.034;20.656;2023-12-29T10:33:19;8.95;;;5.10;;
77298;SDS011;66361;52.034;20.656;2023-12-29T10:37:04;12.68;;;6.95;;
77298;SDS011;66361;52.034;20.656;2023-12-29T10:40:57;9.90;;;6.07;;
77298;SDS011;66361;52.034;20.656;2023-12-29T10:45:05;9.38;;;6.05;;
77298;SDS011;66361;52.034;20.656;2023-12-29T10:48:50;9.77;;;6.38;;
77298;SDS011;66361;52.034;20.656;2023-12-29T10:52:35;9.15;;;3.85;;
77298;SDS011;66361;52.034;20.656;2023-12-29T10:56:20;8.15;;;5.18;;
77298;SDS011;66361;52.034;20.656;2023-12-29T11:03:56;8.75;;;4.45;;
77298;SDS011;66361;52.034;20.656;2023-12-29T11:07:41;8.95;;;5.45;;
77298;SDS011;66361;52.034;20.656;2023-12-29T11:11:27;4.70;;;3.20;;
77298;SDS011;66361;52.034;20.656;2023-12-29T11:15:12;5.63;;;4.28;;
77298;SDS011;66361;52.034;20.656;2023-12-29T11:18:57;7.78;;;4.25;;
77298;SDS011;66361;52.034;20.656;2023-12-29T11:22:42;8.05;;;4.38;;
77298;SDS011;66361;52.034;20.656;2023-12-29T11:26:27;6.53;;;4.18;;
77298;SDS011;66361;52.034;20.656;2023-12-29T11:30:14;5.13;;;3.85;;
77298;SDS011;66361;52.034;20.656;2023-12-29T11:34:00;8.20;;;4.18;;
77298;SDS011;66361;52.034;20.656;2023-12-29T11:37:59;6.07;;;3.47;;
77298;SDS011;66361;52.034;20.656;2023-12-29T11:41:56;7.43;;;5.22;;
77298;SDS011;66361;52.034;20.656;2023-12-29T11:45:49;5.10;;;3.38;;
77298;SDS011;66361;52.034;20.656;2023-12-29T11:53:45;8.45;;;5.70;;
77298;SDS011;66361;52.034;20.656;2023-12-29T11:57:31;9.70;;;5.13;;
77298;SDS011;66361;52.034;20.656;2023-12-29T12:01:29;6.90;;;5.00;;
77298;SDS011;66361;52.034;20.656;2023-12-29T12:09:34;7.05;;;3.90;;
77298;SDS011;66361;52.034;20.656;2023-12-29T12:13:32;5.40;;;3.40;;
77298;SDS011;66361;52.034;20.656;2023-12-29T12:17:30;5.43;;;3.22;;
77298;SDS011;66361;52.034;20.656;2023-12-29T12:21:16;7.47;;;4.30;;
77298;SDS011;66361;52.034;20.656;2023-12-29T12:25:02;9.77;;;4.85;;
77298;SDS011;66361;52.034;20.656;2023-12-29T12:28:51;5.97;;;4.28;;
77298;SDS011;66361;52.034;20.656;2023-12-29T12:32:37;8.05;;;5.20;;
77298;SDS011;66361;52.034;20.656;2023-12-29T12:36:21;7.72;;;4.55;;
77298;SDS011;66361;52.034;20.656;2023-12-29T12:40:06;6.68;;;4.32;;
77298;SDS011;66361;52.034;20.656;2023-12-29T12:43:53;7.25;;;4.90;;
77298;SDS011;66361;52.034;20.656;2023-12-29T12:47:44;7.35;;;4.95;;
77298;SDS011;66361;52.034;20.656;2023-12-29T12:51:34;6.57;;;4.25;;
77298;SDS011;66361;52.034;20.656;2023-12-29T12:55:18;11.77;;;6.45;;
77298;SDS011;66361;52.034;20.656;2023-12-29T12:59:03;9.40;;;4.60;;
77298;SDS011;66361;52.034;20.656;2023-12-29T13:02:49;9.20;;;5.47;;
77298;SDS011;66361;52.034;20.656;2023-12-29T13:06:34;7.10;;;4.05;;
77298;SDS011;66361;52.034;20.656;2023-12-29T13:10:23;6.13;;;3.00;;
77298;SDS011;66361;52.034;20.656;2023-12-29T13:14:07;8.80;;;4.80;;
77298;SDS011;66361;52.034;20.656;2023-12-29T13:17:53;7.30;;;4.32;;
77298;SDS011;66361;52.034;20.656;2023-12-29T13:21:37;7.60;;;3.92;;
77298;SDS011;66361;52.034;20.656;2023-12-29T13:25:24;6.82;;;4.28;;
77298;SDS011;66361;52.034;20.656;2023-12-29T13:29:13;9.75;;;4.65;;
77298;SDS011;66361;52.034;20.656;2023-12-29T13:32:59;7.82;;;4.95;;
77298;SDS011;66361;52.034;20.656;2023-12-29T13:36:51;8.02;;;4.15;;
77298;SDS011;66361;52.034;20.656;2023-12-29T13:40:38;10.38;;;4.85;;
77298;SDS011;66361;52.034;20.656;2023-12-29T13:44:26;5.88;;;4.45;;
77298;SDS011;66361;52.034;20.656;2023-12-29T13:48:14;5.28;;;4.07;;
77298;SDS011;66361;52.034;20.656;2023-12-29T13:52:00;9.68;;;4.93;;
77298;SDS011;66361;52.034;20.656;2023-12-29T13:55:44;6.90;;;4.40;;
77298;SDS011;66361;52.034;20.656;2023-12-29T13:59:29;6.90;;;3.83;;
77298;SDS011;66361;52.034;20.656;2023-12-29T14:03:23;7.95;;;4.53;;
77298;SDS011;66361;52.034;20.656;2023-12-29T14:07:15;7.30;;;3.95;;
77298;SDS011;66361;52.034;20.656;2023-12-29T14:11:07;7.57;;;4.20;;
77298;SDS011;66361;52.034;20.656;2023-12-29T14:14:52;5.22;;;3.28;;
77298;SDS011;66361;52.034;20.656;2023-12-29T14:18:42;5.15;;;2.95;;
77298;SDS011;66361;52.034;20.656;2023-12-29T14:22:37;5.68;;;3.67;;
77298;SDS011;66361;52.034;20.656;2023-12-29T14:26:22;7.55;;;3.80;;
77298;SDS011;66361;52.034;20.656;2023-12-29T14:30:17;7.15;;;3.45;;
77298;SDS011;66361;52.034;20.656;2023-12-29T14:34:03;5.93;;;3.42;;
77298;SDS011;66361;52.034;20.656;2023-12-29T14:37:47;6.10;;;4.78;;
77298;SDS011;66361;52.034;20.656;2023-12-29T14:41:32;6.43;;;4.07;;
77298;SDS011;66361;52.034;20.656;2023-12-29T14:45:16;7.60;;;4.10;;
77298;SDS011;66361;52.034;20.656;2023-12-29T14:49:00;9.48;;;4.78;;
77298;SDS011;66361;52.034;20.656;2023-12-29T14:56:29;6.05;;;4.13;;
77298;SDS011;66361;52.034;20.656;2023-12-29T15:00:14;10.27;;;4.88;;
77298;SDS011;66361;52.034;20.656;2023-12-29T15:07:46;6.30;;;4.40;;
77298;SDS011;66361;52.034;20.656;2023-12-29T15:11:31;8.55;;;5.38;;
77298;SDS011;66361;52.034;20.656;2023-12-29T15:15:15;7.53;;;4.13;;
77298;SDS011;66361;52.034;20.656;2023-12-29T15:18:59;7.95;;;4.40;;
77298;SDS011;66361;52.034;20.656;2023-12-29T15:22:47;8.55;;;4.93;;
77298;SDS011;66361;52.034;20.656;2023-12-29T15:26:32;7.18;;;4.40;;
77298;SDS011;66361;52.034;20.656;2023-12-29T15:30:16;6.20;;;4.38;;
77298;SDS011;66361;52.034;20.656;2023-12-29T15:34:00;6.72;;;4.50;;
77298;SDS011;66361;52.034;20.656;2023-12-29T15:37:45;7.45;;;4.25;;
77298;SDS011;66361;52.034;20.656;2023-12-29T15:41:30;9.77;;;4.80;;
77298;SDS011;66361;52.034;20.656;2023-12-29T15:45:16;8.82;;;4.75;;
77298;SDS011;66361;52.034;20.656;2023-12-29T15:49:01;6.18;;;3.20;;
77298;SDS011;66361;52.034;20.656;2023-12-29T15:52:47;8.48;;;5.00;;
77298;SDS011;66361;52.034;20.656;2023-12-29T15:56:33;8.75;;;4.45;;
77298;SDS011;66361;52.034;20.656;2023-12-29T16:00:17;7.47;;;4.05;;
77298;SDS011;66361;52.034;20.656;2023-12-29T16:04:03;8.88;;;5.30;;
77298;SDS011;66361;52.034;20.656;2023-12-29T16:07:47;9.10;;;4.95;;
77298;SDS011;66361;52.034;20.656;2023-12-29T16:11:33;7.15;;;4.40;;
77298;SDS011;66361;52.034;20.656;2023-12-29T16:15:17;9.45;;;5.57;;
77298;SDS011;66361;52.034;20.656;2023-12-29T16:19:01;8.32;;;4.95;;
77298;SDS011;66361;52.034;20.656;2023-12-29T16:22:46;10.90;;;5.88;;
77298;SDS011;66361;52.034;20.656;2023-12-29T16:26:30;11.13;;;6.10;;
77298;SDS011;66361;52.034;20.656;2023-12-29T16:30:28;11.00;;;5.72;;
77298;SDS011;66361;52.034;20.656;2023-12-29T16:34:12;10.90;;;5.72;;
77298;SDS011;66361;52.034;20.656;2023-12-29T16:37:57;13.65;;;7.57;;
77298;SDS011;66361;52.034;20.656;2023-12-29T16:41:41;11.75;;;6.88;;
77298;SDS011;66361;52.034;20.656;2023-12-29T16:45:28;11.73;;;6.60;;
77298;SDS011;66361;52.034;20.656;2023-12-29T16:49:12;9.00;;;4.50;;
77298;SDS011;66361;52.034;20.656;2023-12-29T16:52:57;12.90;;;6.25;;
77298;SDS011;66361;52.034;20.656;2023-12-29T16:56:43;12.40;;;6.47;;
77298;SDS011;66361;52.034;20.656;2023-12-29T17:00:28;9.55;;;6.25;;
77298;SDS011;66361;52.034;20.656;2023-12-29T17:04:15;9.88;;;5.93;;
77298;SDS011;66361;52.034;20.656;2023-12-29T17:07:59;10.25;;;5.63;;
77298;SDS011;66361;52.034;20.656;2023-12-29T17:11:44;12.48;;;7.65;;
77298;SDS011;66361;52.034;20.656;2023-12-29T17:15:29;10.05;;;6.03;;
77298;SDS011;66361;52.034;20.656;2023-12-29T17:19:13;10.23;;;6.60;;
77298;SDS011;66361;52.034;20.656;2023-12-29T17:22:58;9.75;;;5.63;;
77298;SDS011;66361;52.034;20.656;2023-12-29T17:26:44;8.13;;;5.38;;
77298;SDS011;66361;52.034;20.656;2023-12-29T17:30:30;6.47;;;4.97;;
77298;SDS011;66361;52.034;20.656;2023-12-29T17:34:15;9.45;;;5.50;;
77298;SDS011;66361;52.034;20.656;2023-12-29T17:37:59;7.53;;;4.32;;
77298;SDS011;66361;52.034;20.656;2023-12-29T17:45:30;6.28;;;4.03;;
77298;SDS011;66361;52.034;20.656;2023-12-29T17:49:19;10.60;;;5.85;;
77298;SDS011;66361;52.034;20.656;2023-12-29T17:53:13;6.00;;;3.88;;
77298;SDS011;66361;52.034;20.656;2023-12-29T17:57:03;10.13;;;5.55;;
77298;SDS011;66361;52.034;20.656;2023-12-29T18:00:50;8.43;;;5.47;;
77298;SDS011;66361;52.034;20.656;2023-12-29T18:04:35;7.22;;;5.38;;
77298;SDS011;66361;52.034;20.656;2023-12-29T18:08:20;8.75;;;5.03;;
77298;SDS011;66361;52.034;20.656;2023-12-29T18:12:05;10.50;;;6.22;;
77298;SDS011;66361;52.034;20.656;2023-12-29T18:15:51;13.45;;;6.03;;
77298;SDS011;66361;52.034;20.656;2023-12-29T18:19:36;12.63;;;5.53;;
77298;SDS011;66361;52.034;20.656;2023-12-29T18:23:33;10.80;;;4.97;;
77298;SDS011;66361;52.034;20.656;2023-12-29T18:27:21;12.57;;;5.38;;
77298;SDS011;66361;52.034;20.656;2023-12-29T18:31:29;21.00;;;10.05;;
77298;SDS011;66361;52.034;20.656;2023-12-29T18:35:26;10.32;;;5.63;;
77298;SDS011;66361;52.034;20.656;2023-12-29T18:39:15;9.38;;;4.95;;
77298;SDS011;66361;52.034;20.656;2023-12-29T18:43:44;15.30;;;8.00;;
77298;SDS011;66361;52.034;20.656;2023-12-29T18:47:33;11.70;;;5.82;;
77298;SDS011;66361;52.034;20.656;2023-12-29T18:51:29;14.48;;;6.40;;
77298;SDS011;66361;52.034;20.656;2023-12-29T18:55:17;9.18;;;5.90;;
77298;SDS011;66361;52.034;20.656;2023-12-29T18:59:24;16.10;;;7.57;;
77298;SDS011;66361;52.034;20.656;2023-12-29T19:03:15;10.85;;;5.75;;
77298;SDS011;66361;52.034;20.656;2023-12-29T19:07:04;10.05;;;5.18;;
77298;SDS011;66361;52.034;20.656;2023-12-29T19:10:54;8.32;;;5.13;;
77298;SDS011;66361;52.034;20.656;2023-12-29T19:14:44;9.63;;;5.57;;
77298;SDS011;66361;52.034;20.656;2023-12-29T19:19:14;7.55;;;5.13;;
77298;SDS011;66361;52.034;20.656;2023-12-29T19:23:17;6.65;;;4.55;;
77298;SDS011;66361;52.034;20.656;2023-12-29T19:27:08;8.73;;;4.78;;
77298;SDS011;66361;52.034;20.656;2023-12-29T19:31:07;5.70;;;3.08;;
77298;SDS011;66361;52.034;20.656;2023-12-29T19:35:13;6.95;;;4.63;;
77298;SDS011;66361;52.034;20.656;2023-12-29T19:43:06;8.60;;;5.00;;
77298;SDS011;66361;52.034;20.656;2023-12-29T19:46:57;6.63;;;4.40;;
77298;SDS011;66361;52.034;20.656;2023-12-29T19:50:52;5.45;;;3.72;;
77298;SDS011;66361;52.034;20.656;2023-12-29T19:54:44;8.80;;;4.20;;
77298;SDS011;66361;52.034;20.656;2023-12-29T19:58:58;8.02;;;4.18;;
77298;SDS011;66361;52.034;20.656;2023-12-29T20:03:02;5.78;;;4.40;;
77298;SDS011;66361;52.034;20.656;2023-12-29T20:07:12;4.50;;;3.00;;
77298;SDS011;66361;52.034;20.656;2023-12-29T20:11:09;7.60;;;4.28;;
77298;SDS011;66361;52.034;20.656;2023-12-29T20:15:11;10.43;;;5.15;;
77298;SDS011;66361;52.034;20.656;2023-12-29T20:19:02;7.22;;;3.72;;
77298;SDS011;66361;52.034;20.656;2023-12-29T20:22:53;6.55;;;3.20;;
77298;SDS011;66361;52.034;20.656;2023-12-29T20:26:45;7.22;;;4.38;;
77298;SDS011;66361;52.034;20.656;2023-12-29T20:30:32;9.88;;;5.35;;
77298;SDS011;66361;52.034;20.656;2023-12-29T20:34:17;8.23;;;4.13;;
77298;SDS011;66361;52.034;20.656;2023-12-29T20:38:03;4.13;;;3.58;;
77298;SDS011;66361;52.034;20.656;2023-12-29T20:41:47;5.25;;;3.28;;
77298;SDS011;66361;52.034;20.656;2023-12-29T20:45:31;8.30;;;4.63;;
77298;SDS011;66361;52.034;20.656;2023-12-29T20:49:16;4.68;;;3.05;;
77298;SDS011;66361;52.034;20.656;2023-12-29T20:53:00;7.07;;;3.53;;
77298;SDS011;66361;52.034;20.656;2023-12-29T20:56:46;8.00;;;4.55;;
77298;SDS011;66361;52.034;20.656;2023-12-29T21:00:30;5.32;;;3.42;;
77298;SDS011;66361;52.034;20.656;2023-12-29T21:04:15;5.35;;;3.58;;
77298;SDS011;66361;52.034;20.656;2023-12-29T21:07:59;7.85;;;4.32;;
77298;SDS011;66361;52.034;20.656;2023-12-29T21:11:44;7.10;;;4.13;;
77298;SDS011;66361;52.034;20.656;2023-12-29T21:15:29;6.30;;;4.20;;
77298;SDS011;66361;52.034;20.656;2023-12-29T21:19:16;7.20;;;3.78;;
77298;SDS011;66361;52.034;20.656;2023-12-29T21:23:02;7.50;;;5.00;;
77298;SDS011;66361;52.034;20.656;2023-12-29T21:26:47;6.20;;;3.65;;
77298;SDS011;66361;52.034;20.656;2023-12-29T21:30:32;4.88;;;3.55;;
77298;SDS011;66361;52.034;20.656;2023-12-29T21:34:17;6.40;;;4.35;;
77298;SDS011;66361;52.034;20.656;2023-12-29T21:38:02;7.20;;;4.32;;
77298;SDS011;66361;52.034;20.656;2023-12-29T21:41:46;6.05;;;3.72;;
77298;SDS011;66361;52.034;20.656;2023-12-29T21:49:16;6.00;;;3.92;;
77298;SDS011;66361;52.034;20.656;2023-12-29T21:53:03;5.57;;;3.72;;
77298;SDS011;66361;52.034;20.656;2023-12-29T21:56:50;5.10;;;3.72;;
77298;SDS011;66361;52.034;20.656;2023-12-29T22:00:38;4.90;;;3.40;;
77298;SDS011;66361;52.034;20.656;2023-12-29T22:04:23;7.53;;;4.28;;
77298;SDS011;66361;52.034;20.656;2023-12-29T22:08:08;7.95;;;4.57;;
77298;SDS011;66361;52.034;20.656;2023-12-29T22:11:52;8.38;;;4.80;;
77298;SDS011;66361;52.034;20.656;2023-12-29T22:15:38;6.38;;;4.13;;
77298;SDS011;66361;52.034;20.656;2023-12-29T22:19:22;6.45;;;3.85;;
77298;SDS011;66361;52.034;20.656;2023-12-29T22:23:08;6.72;;;4.55;;
77298;SDS011;66361;52.034;20.656;2023-12-29T22:26:53;7.50;;;4.30;;
77298;SDS011;66361;52.034;20.656;2023-12-29T22:30:39;5.75;;;3.88;;
77298;SDS011;66361;52.034;20.656;2023-12-29T22:34:23;7.60;;;4.25;;
77298;SDS011;66361;52.034;20.656;2023-12-29T22:38:07;8.98;;;4.55;;
77298;SDS011;66361;52.034;20.656;2023-12-29T22:42:00;9.98;;;4.70;;
77298;SDS011;66361;52.034;20.656;2023-12-29T22:45:46;9.95;;;4.65;;
77298;SDS011;66361;52.034;20.656;2023-12-29T22:49:32;6.95;;;4.55;;
77298;SDS011;66361;52.034;20.656;2023-12-29T22:57:01;5.90;;;4.13;;
77298;SDS011;66361;52.034;20.656;2023-12-29T23:00:48;11.15;;;4.40;;